sensor_id;sensor_type;location;lat;lon;timestamp;temperature;humidity
62904;DHT22;49000;50.698;13.322;2023-10-09T00:02:12;9.50;99.90
62904;DHT22;49000;50.698;13.322;2023-10-09T00:04:40;9.50;99.90
62904;DHT22;49000;50.698;13.322;2023-10-09T00:07:11;9.40;99.90
62904;DHT22;49000;50.698;13.322;2023-10-09T00:09:37;9.30;99.90
62904;DHT22;49000;50.698;13.322;2023-10-09T00:12:21;9.30;99.90
62904;DHT22;49000;50.698;13.322;2023-10-09T00:14:51;9.40;99.90
62904;DHT22;49000;50.698;13.322;2023-10-09T00:17:20;9.40;99.90
62904;DHT22;49000;50.698;13.322;2023-10-09T00:19:49;9.50;99.90
62904;DHT22;49000;50.698;13.322;2023-10-09T00:22:20;9.50;1.00
62904;DHT22;49000;50.698;13.322;2023-10-09T00:24:53;9.50;1.00
62904;DHT22;49000;50.698;13.322;2023-10-09T00:27:36;9.50;1.00
62904;DHT22;49000;50.698;13.322;2023-10-09T00:30:02;9.50;1.00
62904;DHT22;49000;50.698;13.322;2023-10-09T00:32:28;9.60;1.00
62904;DHT22;49000;50.698;13.322;2023-10-09T00:34:58;9.70;1.00
62904;DHT22;49000;50.698;13.322;2023-10-09T00:37:44;9.70;1.00
62904;DHT22;49000;50.698;13.322;2023-10-09T00:40:10;9.80;1.00
62904;DHT22;49000;50.698;13.322;2023-10-09T00:42:45;9.80;1.00
62904;DHT22;49000;50.698;13.322;2023-10-09T00:45:12;9.90;1.00
62904;DHT22;49000;50.698;13.322;2023-10-09T00:47:42;9.90;1.00
62904;DHT22;49000;50.698;13.322;2023-10-09T00:50:09;9.90;1.00
62904;DHT22;49000;50.698;13.322;2023-10-09T00:52:45;10.00;1.00
62904;DHT22;49000;50.698;13.322;2023-10-09T00:55:20;10.00;1.00
62904;DHT22;49000;50.698;13.322;2023-10-09T00:58:06;10.10;1.00
62904;DHT22;49000;50.698;13.322;2023-10-09T01:00:40;10.10;1.00
62904;DHT22;49000;50.698;13.322;2023-10-09T01:03:16;10.10;1.00
62904;DHT22;49000;50.698;13.322;2023-10-09T01:05:49;10.20;1.00
62904;DHT22;49000;50.698;13.322;2023-10-09T01:08:24;10.20;1.00
62904;DHT22;49000;50.698;13.322;2023-10-09T01:10:54;10.20;1.00
62904;DHT22;49000;50.698;13.322;2023-10-09T01:13:25;10.20;1.00
62904;DHT22;49000;50.698;13.322;2023-10-09T01:15:57;10.30;1.00
62904;DHT22;49000;50.698;13.322;2023-10-09T01:18:24;10.30;1.00
62904;DHT22;49000;50.698;13.322;2023-10-09T01:20:57;10.30;3.80
62904;DHT22;49000;50.698;13.322;2023-10-09T01:23:22;10.40;1.20
62904;DHT22;49000;50.698;13.322;2023-10-09T01:25:49;10.40;1.00
62904;DHT22;49000;50.698;13.322;2023-10-09T01:28:15;10.40;1.00
62904;DHT22;49000;50.698;13.322;2023-10-09T01:30:42;10.40;1.80
62904;DHT22;49000;50.698;13.322;2023-10-09T01:33:08;10.50;1.60
62904;DHT22;49000;50.698;13.322;2023-10-09T01:35:47;10.50;3.90
62904;DHT22;49000;50.698;13.322;2023-10-09T01:38:15;10.50;3.20
62904;DHT22;49000;50.698;13.322;2023-10-09T01:40:41;10.50;10.30
62904;DHT22;49000;50.698;13.322;2023-10-09T01:43:08;10.60;16.90
62904;DHT22;49000;50.698;13.322;2023-10-09T01:45:38;10.60;19.90
62904;DHT22;49000;50.698;13.322;2023-10-09T01:48:12;10.60;18.20
62904;DHT22;49000;50.698;13.322;2023-10-09T01:50:40;10.70;20.90
62904;DHT22;49000;50.698;13.322;2023-10-09T01:53:08;10.70;17.80
62904;DHT22;49000;50.698;13.322;2023-10-09T01:55:34;10.70;17.60
62904;DHT22;49000;50.698;13.322;2023-10-09T01:58:07;10.70;18.10
62904;DHT22;49000;50.698;13.322;2023-10-09T02:00:48;10.70;17.80
62904;DHT22;49000;50.698;13.322;2023-10-09T02:03:27;10.80;13.50
62904;DHT22;49000;50.698;13.322;2023-10-09T02:05:55;10.80;15.10
62904;DHT22;49000;50.698;13.322;2023-10-09T02:08:28;10.80;16.60
62904;DHT22;49000;50.698;13.322;2023-10-09T02:10:55;10.90;16.60
62904;DHT22;49000;50.698;13.322;2023-10-09T02:13:22;10.90;15.50
62904;DHT22;49000;50.698;13.322;2023-10-09T02:16:00;10.90;11.30
62904;DHT22;49000;50.698;13.322;2023-10-09T02:18:40;10.90;11.70
62904;DHT22;49000;50.698;13.322;2023-10-09T02:21:18;10.90;11.70
62904;DHT22;49000;50.698;13.322;2023-10-09T02:23:53;11.00;15.20
62904;DHT22;49000;50.698;13.322;2023-10-09T02:26:22;11.00;12.20
62904;DHT22;49000;50.698;13.322;2023-10-09T02:28:55;11.00;9.40
62904;DHT22;49000;50.698;13.322;2023-10-09T02:31:28;11.00;8.90
62904;DHT22;49000;50.698;13.322;2023-10-09T02:34:01;11.00;9.60
62904;DHT22;49000;50.698;13.322;2023-10-09T02:36:30;11.10;9.10
62904;DHT22;49000;50.698;13.322;2023-10-09T02:38:55;11.10;9.00
62904;DHT22;49000;50.698;13.322;2023-10-09T02:41:22;11.10;9.00
62904;DHT22;49000;50.698;13.322;2023-10-09T02:43:53;11.10;9.00
62904;DHT22;49000;50.698;13.322;2023-10-09T02:46:21;11.10;9.00
62904;DHT22;49000;50.698;13.322;2023-10-09T02:48:55;11.10;10.70
62904;DHT22;49000;50.698;13.322;2023-10-09T02:51:23;11.10;9.90
62904;DHT22;49000;50.698;13.322;2023-10-09T02:54:11;11.20;12.20
62904;DHT22;49000;50.698;13.322;2023-10-09T02:56:51;11.10;21.70
62904;DHT22;49000;50.698;13.322;2023-10-09T02:59:36;11.10;24.40
62904;DHT22;49000;50.698;13.322;2023-10-09T03:02:04;11.10;23.50
62904;DHT22;49000;50.698;13.322;2023-10-09T03:04:29;11.10;21.70
62904;DHT22;49000;50.698;13.322;2023-10-09T03:06:55;11.10;27.10
62904;DHT22;49000;50.698;13.322;2023-10-09T03:09:23;11.10;29.60
62904;DHT22;49000;50.698;13.322;2023-10-09T03:11:54;11.10;37.20
62904;DHT22;49000;50.698;13.322;2023-10-09T03:14:21;11.10;40.70
62904;DHT22;49000;50.698;13.322;2023-10-09T03:16:47;11.10;49.60
62904;DHT22;49000;50.698;13.322;2023-10-09T03:19:15;11.20;68.80
62904;DHT22;49000;50.698;13.322;2023-10-09T03:21:41;11.10;79.90
62904;DHT22;49000;50.698;13.322;2023-10-09T03:24:07;11.10;87.50
62904;DHT22;49000;50.698;13.322;2023-10-09T03:26:34;11.20;91.20
62904;DHT22;49000;50.698;13.322;2023-10-09T03:29:00;11.10;92.20
62904;DHT22;49000;50.698;13.322;2023-10-09T03:31:32;11.20;99.90
62904;DHT22;49000;50.698;13.322;2023-10-09T03:33:59;11.20;99.90
62904;DHT22;49000;50.698;13.322;2023-10-09T03:36:24;11.30;99.90
62904;DHT22;49000;50.698;13.322;2023-10-09T03:38:52;11.30;99.90
62904;DHT22;49000;50.698;13.322;2023-10-09T03:41:20;11.40;99.90
62904;DHT22;49000;50.698;13.322;2023-10-09T03:43:46;11.50;99.90
62904;DHT22;49000;50.698;13.322;2023-10-09T03:46:12;11.60;99.90
62904;DHT22;49000;50.698;13.322;2023-10-09T03:48:51;11.70;99.90
62904;DHT22;49000;50.698;13.322;2023-10-09T03:51:18;11.70;99.90
62904;DHT22;49000;50.698;13.322;2023-10-09T03:53:51;11.80;99.90
62904;DHT22;49000;50.698;13.322;2023-10-09T03:56:18;11.90;99.90
62904;DHT22;49000;50.698;13.322;2023-10-09T03:58:45;11.90;99.90
62904;DHT22;49000;50.698;13.322;2023-10-09T04:01:12;11.90;99.90
62904;DHT22;49000;50.698;13.322;2023-10-09T04:03:57;12.00;99.90
62904;DHT22;49000;50.698;13.322;2023-10-09T04:06:27;12.00;99.90
62904;DHT22;49000;50.698;13.322;2023-10-09T04:08:56;12.10;99.90
62904;DHT22;49000;50.698;13.322;2023-10-09T04:11:24;12.10;99.90
62904;DHT22;49000;50.698;13.322;2023-10-09T04:13:50;12.20;99.90
62904;DHT22;49000;50.698;13.322;2023-10-09T04:16:18;12.20;99.90
62904;DHT22;49000;50.698;13.322;2023-10-09T04:18:58;12.20;99.90
62904;DHT22;49000;50.698;13.322;2023-10-09T04:21:25;12.20;99.90
62904;DHT22;49000;50.698;13.322;2023-10-09T04:24:06;12.20;99.90
62904;DHT22;49000;50.698;13.322;2023-10-09T04:26:40;12.30;99.90
62904;DHT22;49000;50.698;13.322;2023-10-09T04:29:10;12.30;99.90
62904;DHT22;49000;50.698;13.322;2023-10-09T04:31:36;12.30;99.90
62904;DHT22;49000;50.698;13.322;2023-10-09T04:34:03;12.40;99.90
62904;DHT22;49000;50.698;13.322;2023-10-09T04:36:48;12.40;99.90
62904;DHT22;49000;50.698;13.322;2023-10-09T04:39:15;12.40;99.90
62904;DHT22;49000;50.698;13.322;2023-10-09T04:41:51;12.40;99.90
62904;DHT22;49000;50.698;13.322;2023-10-09T04:44:18;12.50;99.90
62904;DHT22;49000;50.698;13.322;2023-10-09T04:46:45;12.50;99.90
62904;DHT22;49000;50.698;13.322;2023-10-09T04:49:34;12.60;99.90
62904;DHT22;49000;50.698;13.322;2023-10-09T04:52:19;12.60;99.90
62904;DHT22;49000;50.698;13.322;2023-10-09T04:55:06;12.60;99.90
62904;DHT22;49000;50.698;13.322;2023-10-09T04:57:33;12.70;99.90
62904;DHT22;49000;50.698;13.322;2023-10-09T05:02:56;12.80;99.90
62904;DHT22;49000;50.698;13.322;2023-10-09T05:05:23;12.80;99.90
62904;DHT22;49000;50.698;13.322;2023-10-09T05:08:04;12.80;99.90
62904;DHT22;49000;50.698;13.322;2023-10-09T05:10:46;12.80;99.90
62904;DHT22;49000;50.698;13.322;2023-10-09T05:13:29;12.90;99.90
62904;DHT22;49000;50.698;13.322;2023-10-09T05:16:07;12.90;99.90
62904;DHT22;49000;50.698;13.322;2023-10-09T05:18:44;12.90;99.90
62904;DHT22;49000;50.698;13.322;2023-10-09T05:21:11;12.90;99.90
62904;DHT22;49000;50.698;13.322;2023-10-09T05:23:55;12.90;99.90
62904;DHT22;49000;50.698;13.322;2023-10-09T05:26:48;12.90;99.90
62904;DHT22;49000;50.698;13.322;2023-10-09T05:31:58;13.00;99.90
62904;DHT22;49000;50.698;13.322;2023-10-09T05:34:45;13.00;99.90
62904;DHT22;49000;50.698;13.322;2023-10-09T05:39:55;13.00;99.90
62904;DHT22;49000;50.698;13.322;2023-10-09T05:42:31;13.00;99.90
62904;DHT22;49000;50.698;13.322;2023-10-09T05:45:06;13.00;99.90
62904;DHT22;49000;50.698;13.322;2023-10-09T05:47:54;13.00;99.90
62904;DHT22;49000;50.698;13.322;2023-10-09T05:50:30;13.00;99.90
62904;DHT22;49000;50.698;13.322;2023-10-09T05:52:58;13.00;99.90
62904;DHT22;49000;50.698;13.322;2023-10-09T05:55:28;13.00;99.90
62904;DHT22;49000;50.698;13.322;2023-10-09T05:58:12;13.00;99.90
62904;DHT22;49000;50.698;13.322;2023-10-09T06:00:56;13.00;99.90
62904;DHT22;49000;50.698;13.322;2023-10-09T06:03:40;13.10;99.90
62904;DHT22;49000;50.698;13.322;2023-10-09T06:06:22;13.10;99.90
62904;DHT22;49000;50.698;13.322;2023-10-09T06:09:15;13.10;99.90
62904;DHT22;49000;50.698;13.322;2023-10-09T06:11:48;13.10;99.90
62904;DHT22;49000;50.698;13.322;2023-10-09T06:14:14;13.10;99.90
62904;DHT22;49000;50.698;13.322;2023-10-09T06:16:48;13.10;99.90
62904;DHT22;49000;50.698;13.322;2023-10-09T06:19:23;13.10;99.90
62904;DHT22;49000;50.698;13.322;2023-10-09T06:21:57;13.10;99.90
62904;DHT22;49000;50.698;13.322;2023-10-09T06:24:42;13.10;99.90
62904;DHT22;49000;50.698;13.322;2023-10-09T06:27:08;13.10;99.90
62904;DHT22;49000;50.698;13.322;2023-10-09T06:29:38;13.10;99.90
62904;DHT22;49000;50.698;13.322;2023-10-09T06:32:16;13.20;99.90
62904;DHT22;49000;50.698;13.322;2023-10-09T06:34:57;13.20;99.90
62904;DHT22;49000;50.698;13.322;2023-10-09T06:37:43;13.20;99.90
62904;DHT22;49000;50.698;13.322;2023-10-09T06:43:13;13.20;99.90
62904;DHT22;49000;50.698;13.322;2023-10-09T06:45:58;13.20;99.90
62904;DHT22;49000;50.698;13.322;2023-10-09T06:48:44;13.30;99.90
62904;DHT22;49000;50.698;13.322;2023-10-09T06:51:21;13.30;99.90
62904;DHT22;49000;50.698;13.322;2023-10-09T06:53:50;13.30;99.90
62904;DHT22;49000;50.698;13.322;2023-10-09T06:56:29;13.40;99.90
62904;DHT22;49000;50.698;13.322;2023-10-09T06:59:05;13.40;99.90
62904;DHT22;49000;50.698;13.322;2023-10-09T07:01:51;13.40;99.90
62904;DHT22;49000;50.698;13.322;2023-10-09T07:04:36;13.40;99.90
62904;DHT22;49000;50.698;13.322;2023-10-09T07:07:02;13.40;99.90
62904;DHT22;49000;50.698;13.322;2023-10-09T07:09:33;13.40;99.90
62904;DHT22;49000;50.698;13.322;2023-10-09T07:12:09;13.40;99.90
62904;DHT22;49000;50.698;13.322;2023-10-09T07:14:51;13.40;99.90
62904;DHT22;49000;50.698;13.322;2023-10-09T07:17:17;13.50;99.90
62904;DHT22;49000;50.698;13.322;2023-10-09T07:19:53;13.60;99.90
62904;DHT22;49000;50.698;13.322;2023-10-09T07:22:19;13.50;99.90
62904;DHT22;49000;50.698;13.322;2023-10-09T07:24:51;13.50;99.90
62904;DHT22;49000;50.698;13.322;2023-10-09T07:27:24;13.50;99.90
62904;DHT22;49000;50.698;13.322;2023-10-09T07:30:10;13.50;99.90
62904;DHT22;49000;50.698;13.322;2023-10-09T07:33:05;13.60;99.90
62904;DHT22;49000;50.698;13.322;2023-10-09T07:35:45;13.50;99.90
62904;DHT22;49000;50.698;13.322;2023-10-09T07:38:11;13.50;99.90
62904;DHT22;49000;50.698;13.322;2023-10-09T07:40:40;13.50;99.90
62904;DHT22;49000;50.698;13.322;2023-10-09T07:43:25;13.50;99.90
62904;DHT22;49000;50.698;13.322;2023-10-09T07:45:56;13.60;99.90
62904;DHT22;49000;50.698;13.322;2023-10-09T07:48:25;13.70;99.90
62904;DHT22;49000;50.698;13.322;2023-10-09T07:50:51;13.70;99.90
62904;DHT22;49000;50.698;13.322;2023-10-09T07:53:22;13.80;99.90
62904;DHT22;49000;50.698;13.322;2023-10-09T07:55:55;13.80;99.90
62904;DHT22;49000;50.698;13.322;2023-10-09T07:58:27;13.70;99.90
62904;DHT22;49000;50.698;13.322;2023-10-09T08:00:54;13.80;99.90
62904;DHT22;49000;50.698;13.322;2023-10-09T08:03:39;13.90;99.90
62904;DHT22;49000;50.698;13.322;2023-10-09T08:06:05;14.00;99.90
62904;DHT22;49000;50.698;13.322;2023-10-09T08:08:53;14.00;99.90
62904;DHT22;49000;50.698;13.322;2023-10-09T08:11:29;14.00;99.90
62904;DHT22;49000;50.698;13.322;2023-10-09T08:14:25;13.90;99.90
62904;DHT22;49000;50.698;13.322;2023-10-09T08:17:00;13.90;99.90
62904;DHT22;49000;50.698;13.322;2023-10-09T08:19:45;13.90;99.90
62904;DHT22;49000;50.698;13.322;2023-10-09T08:22:21;13.90;99.90
62904;DHT22;49000;50.698;13.322;2023-10-09T08:24:50;13.80;99.90
62904;DHT22;49000;50.698;13.322;2023-10-09T08:27:22;13.70;99.90
62904;DHT22;49000;50.698;13.322;2023-10-09T08:30:02;13.60;99.90
62904;DHT22;49000;50.698;13.322;2023-10-09T08:32:43;13.60;99.90
62904;DHT22;49000;50.698;13.322;2023-10-09T08:35:33;13.40;99.90
62904;DHT22;49000;50.698;13.322;2023-10-09T08:38:03;13.40;99.90
62904;DHT22;49000;50.698;13.322;2023-10-09T08:40:38;13.40;99.90
62904;DHT22;49000;50.698;13.322;2023-10-09T08:45:44;13.40;99.90
62904;DHT22;49000;50.698;13.322;2023-10-09T08:48:11;13.40;99.90
62904;DHT22;49000;50.698;13.322;2023-10-09T08:50:44;13.40;99.90
62904;DHT22;49000;50.698;13.322;2023-10-09T08:53:13;13.40;99.90
62904;DHT22;49000;50.698;13.322;2023-10-09T08:55:40;13.30;99.90
62904;DHT22;49000;50.698;13.322;2023-10-09T08:58:06;13.40;99.90
62904;DHT22;49000;50.698;13.322;2023-10-09T09:00:46;13.50;99.90
62904;DHT22;49000;50.698;13.322;2023-10-09T09:03:16;13.50;99.90
62904;DHT22;49000;50.698;13.322;2023-10-09T09:05:58;13.40;99.90
62904;DHT22;49000;50.698;13.322;2023-10-09T09:08:27;13.50;99.90
62904;DHT22;49000;50.698;13.322;2023-10-09T09:11:17;13.50;99.90
62904;DHT22;49000;50.698;13.322;2023-10-09T09:13:45;13.50;99.90
62904;DHT22;49000;50.698;13.322;2023-10-09T09:16:19;13.50;99.90
62904;DHT22;49000;50.698;13.322;2023-10-09T09:18:58;13.50;99.90
62904;DHT22;49000;50.698;13.322;2023-10-09T09:21:33;13.40;99.90
62904;DHT22;49000;50.698;13.322;2023-10-09T09:24:07;13.50;99.90
62904;DHT22;49000;50.698;13.322;2023-10-09T09:26:43;13.30;99.90
62904;DHT22;49000;50.698;13.322;2023-10-09T09:29:15;13.30;99.90
62904;DHT22;49000;50.698;13.322;2023-10-09T09:31:54;13.20;99.90
62904;DHT22;49000;50.698;13.322;2023-10-09T09:34:21;13.20;99.90
62904;DHT22;49000;50.698;13.322;2023-10-09T09:36:52;13.20;99.90
62904;DHT22;49000;50.698;13.322;2023-10-09T09:39:21;13.20;99.90
62904;DHT22;49000;50.698;13.322;2023-10-09T09:41:53;13.20;99.90
62904;DHT22;49000;50.698;13.322;2023-10-09T09:44:20;13.20;99.90
62904;DHT22;49000;50.698;13.322;2023-10-09T09:46:51;13.30;99.90
62904;DHT22;49000;50.698;13.322;2023-10-09T09:49:19;13.30;99.90
62904;DHT22;49000;50.698;13.322;2023-10-09T09:51:47;13.40;99.90
62904;DHT22;49000;50.698;13.322;2023-10-09T09:54:13;13.40;99.90
62904;DHT22;49000;50.698;13.322;2023-10-09T09:56:44;13.50;99.90
62904;DHT22;49000;50.698;13.322;2023-10-09T09:59:10;13.50;99.90
62904;DHT22;49000;50.698;13.322;2023-10-09T10:01:50;13.50;99.90
62904;DHT22;49000;50.698;13.322;2023-10-09T10:04:26;13.50;99.90
62904;DHT22;49000;50.698;13.322;2023-10-09T10:06:52;13.60;99.90
62904;DHT22;49000;50.698;13.322;2023-10-09T10:09:46;13.70;99.90
62904;DHT22;49000;50.698;13.322;2023-10-09T10:12:15;13.80;99.90
62904;DHT22;49000;50.698;13.322;2023-10-09T10:15:00;13.80;99.90
62904;DHT22;49000;50.698;13.322;2023-10-09T10:20:25;13.70;99.90
62904;DHT22;49000;50.698;13.322;2023-10-09T10:25:37;13.60;99.90
62904;DHT22;49000;50.698;13.322;2023-10-09T10:28:22;13.50;99.90
62904;DHT22;49000;50.698;13.322;2023-10-09T10:30:54;13.50;99.90
62904;DHT22;49000;50.698;13.322;2023-10-09T10:33:21;13.60;99.90
62904;DHT22;49000;50.698;13.322;2023-10-09T10:35:48;13.60;99.90
62904;DHT22;49000;50.698;13.322;2023-10-09T10:38:29;13.60;99.90
62904;DHT22;49000;50.698;13.322;2023-10-09T10:41:15;13.60;99.90
62904;DHT22;49000;50.698;13.322;2023-10-09T10:43:45;13.70;99.90
62904;DHT22;49000;50.698;13.322;2023-10-09T10:46:18;13.60;99.90
62904;DHT22;49000;50.698;13.322;2023-10-09T10:48:58;13.70;99.90
62904;DHT22;49000;50.698;13.322;2023-10-09T10:51:34;13.60;99.90
62904;DHT22;49000;50.698;13.322;2023-10-09T10:54:07;13.70;99.90
62904;DHT22;49000;50.698;13.322;2023-10-09T10:56:53;13.70;99.90
62904;DHT22;49000;50.698;13.322;2023-10-09T10:59:23;13.70;99.90
62904;DHT22;49000;50.698;13.322;2023-10-09T11:01:50;13.70;99.90
62904;DHT22;49000;50.698;13.322;2023-10-09T11:04:23;13.70;99.90
62904;DHT22;49000;50.698;13.322;2023-10-09T11:06:55;13.70;99.90
62904;DHT22;49000;50.698;13.322;2023-10-09T11:09:26;13.80;99.90
62904;DHT22;49000;50.698;13.322;2023-10-09T11:12:05;13.70;99.90
62904;DHT22;49000;50.698;13.322;2023-10-09T11:14:48;13.70;99.90
62904;DHT22;49000;50.698;13.322;2023-10-09T11:17:37;13.70;99.90
62904;DHT22;49000;50.698;13.322;2023-10-09T11:20:06;13.70;99.90
62904;DHT22;49000;50.698;13.322;2023-10-09T11:22:52;13.70;99.90
62904;DHT22;49000;50.698;13.322;2023-10-09T11:25:39;13.90;99.90
62904;DHT22;49000;50.698;13.322;2023-10-09T11:28:23;14.00;99.90
62904;DHT22;49000;50.698;13.322;2023-10-09T11:31:11;14.10;99.90
62904;DHT22;49000;50.698;13.322;2023-10-09T11:33:49;14.10;99.90
62904;DHT22;49000;50.698;13.322;2023-10-09T11:36:21;14.10;99.90
62904;DHT22;49000;50.698;13.322;2023-10-09T11:39:00;14.10;99.90
62904;DHT22;49000;50.698;13.322;2023-10-09T11:41:47;14.10;99.90
62904;DHT22;49000;50.698;13.322;2023-10-09T11:44:15;14.10;99.90
62904;DHT22;49000;50.698;13.322;2023-10-09T11:47:00;14.20;99.90
62904;DHT22;49000;50.698;13.322;2023-10-09T11:50:02;14.40;99.90
62904;DHT22;49000;50.698;13.322;2023-10-09T11:52:32;14.40;99.90
62904;DHT22;49000;50.698;13.322;2023-10-09T11:55:01;14.50;99.90
62904;DHT22;49000;50.698;13.322;2023-10-09T11:57:28;14.50;99.90
62904;DHT22;49000;50.698;13.322;2023-10-09T11:59:58;14.50;99.90
62904;DHT22;49000;50.698;13.322;2023-10-09T12:02:26;14.40;99.90
62904;DHT22;49000;50.698;13.322;2023-10-09T12:04:52;14.30;99.90
62904;DHT22;49000;50.698;13.322;2023-10-09T12:07:21;14.20;99.90
62904;DHT22;49000;50.698;13.322;2023-10-09T12:09:47;14.20;99.90
62904;DHT22;49000;50.698;13.322;2023-10-09T12:12:13;14.20;99.90
62904;DHT22;49000;50.698;13.322;2023-10-09T12:14:39;14.20;99.90
62904;DHT22;49000;50.698;13.322;2023-10-09T12:17:06;14.30;99.90
62904;DHT22;49000;50.698;13.322;2023-10-09T12:19:36;14.30;99.90
62904;DHT22;49000;50.698;13.322;2023-10-09T12:22:03;14.30;99.90
62904;DHT22;49000;50.698;13.322;2023-10-09T12:24:31;14.20;99.90
62904;DHT22;49000;50.698;13.322;2023-10-09T12:26:56;14.20;99.90
62904;DHT22;49000;50.698;13.322;2023-10-09T12:29:23;14.20;99.90
62904;DHT22;49000;50.698;13.322;2023-10-09T12:31:50;14.10;99.90
62904;DHT22;49000;50.698;13.322;2023-10-09T12:34:23;14.10;99.90
62904;DHT22;49000;50.698;13.322;2023-10-09T12:36:54;14.00;99.90
62904;DHT22;49000;50.698;13.322;2023-10-09T12:39:23;14.00;99.90
62904;DHT22;49000;50.698;13.322;2023-10-09T12:41:49;14.00;99.90
62904;DHT22;49000;50.698;13.322;2023-10-09T12:44:19;14.00;99.90
62904;DHT22;49000;50.698;13.322;2023-10-09T12:46:45;14.00;99.90
62904;DHT22;49000;50.698;13.322;2023-10-09T12:49:18;14.00;99.90
62904;DHT22;49000;50.698;13.322;2023-10-09T12:51:44;14.00;99.90
62904;DHT22;49000;50.698;13.322;2023-10-09T12:54:09;14.00;99.90
62904;DHT22;49000;50.698;13.322;2023-10-09T12:56:35;14.00;99.90
62904;DHT22;49000;50.698;13.322;2023-10-09T12:59:04;13.90;99.90
62904;DHT22;49000;50.698;13.322;2023-10-09T13:01:40;13.90;99.90
62904;DHT22;49000;50.698;13.322;2023-10-09T13:06:38;13.90;99.90
62904;DHT22;49000;50.698;13.322;2023-10-09T13:09:16;13.90;99.90
62904;DHT22;49000;50.698;13.322;2023-10-09T13:11:49;13.90;99.90
62904;DHT22;49000;50.698;13.322;2023-10-09T13:14:16;13.90;99.90
62904;DHT22;49000;50.698;13.322;2023-10-09T13:16:48;13.80;99.90
62904;DHT22;49000;50.698;13.322;2023-10-09T13:19:16;13.80;99.90
62904;DHT22;49000;50.698;13.322;2023-10-09T13:21:43;13.80;99.90
62904;DHT22;49000;50.698;13.322;2023-10-09T13:24:08;13.80;99.90
62904;DHT22;49000;50.698;13.322;2023-10-09T13:26:49;13.80;99.90
62904;DHT22;49000;50.698;13.322;2023-10-09T13:29:17;13.80;99.90
62904;DHT22;49000;50.698;13.322;2023-10-09T13:31:48;13.80;99.90
62904;DHT22;49000;50.698;13.322;2023-10-09T13:34:16;13.80;99.90
62904;DHT22;49000;50.698;13.322;2023-10-09T13:36:42;13.70;99.90
62904;DHT22;49000;50.698;13.322;2023-10-09T13:39:20;13.70;99.90
62904;DHT22;49000;50.698;13.322;2023-10-09T13:41:47;13.80;99.90
62904;DHT22;49000;50.698;13.322;2023-10-09T13:44:13;13.80;99.90
62904;DHT22;49000;50.698;13.322;2023-10-09T13:46:38;13.80;99.90
62904;DHT22;49000;50.698;13.322;2023-10-09T13:49:10;13.80;99.90
62904;DHT22;49000;50.698;13.322;2023-10-09T13:51:42;13.80;99.90
62904;DHT22;49000;50.698;13.322;2023-10-09T13:54:11;13.80;99.90
62904;DHT22;49000;50.698;13.322;2023-10-09T13:56:45;13.80;99.90
62904;DHT22;49000;50.698;13.322;2023-10-09T13:59:10;13.80;99.90
62904;DHT22;49000;50.698;13.322;2023-10-09T14:01:37;13.80;99.90
62904;DHT22;49000;50.698;13.322;2023-10-09T14:04:04;13.80;99.90
62904;DHT22;49000;50.698;13.322;2023-10-09T14:06:31;13.80;99.90
62904;DHT22;49000;50.698;13.322;2023-10-09T14:08:58;13.80;99.90
62904;DHT22;49000;50.698;13.322;2023-10-09T14:11:25;13.80;99.90
62904;DHT22;49000;50.698;13.322;2023-10-09T14:13:52;13.90;99.90
62904;DHT22;49000;50.698;13.322;2023-10-09T14:16:17;13.90;99.90
62904;DHT22;49000;50.698;13.322;2023-10-09T14:18:58;13.80;99.90
62904;DHT22;49000;50.698;13.322;2023-10-09T14:21:26;13.90;99.90
62904;DHT22;49000;50.698;13.322;2023-10-09T14:23:55;13.80;99.90
62904;DHT22;49000;50.698;13.322;2023-10-09T14:26:27;13.80;99.90
62904;DHT22;49000;50.698;13.322;2023-10-09T14:28:55;13.80;99.90
62904;DHT22;49000;50.698;13.322;2023-10-09T14:31:23;13.70;99.90
62904;DHT22;49000;50.698;13.322;2023-10-09T14:33:56;13.80;99.90
62904;DHT22;49000;50.698;13.322;2023-10-09T14:36:23;13.70;99.90
62904;DHT22;49000;50.698;13.322;2023-10-09T14:38:50;13.80;99.90
62904;DHT22;49000;50.698;13.322;2023-10-09T14:41:19;13.70;99.90
62904;DHT22;49000;50.698;13.322;2023-10-09T14:43:49;13.70;99.90
62904;DHT22;49000;50.698;13.322;2023-10-09T14:46:15;13.70;99.90
62904;DHT22;49000;50.698;13.322;2023-10-09T14:48:40;13.70;99.90
62904;DHT22;49000;50.698;13.322;2023-10-09T14:51:11;13.70;99.90
62904;DHT22;49000;50.698;13.322;2023-10-09T14:53:39;13.60;99.90
62904;DHT22;49000;50.698;13.322;2023-10-09T14:56:05;13.70;99.90
62904;DHT22;49000;50.698;13.322;2023-10-09T14:58:37;13.60;99.90
62904;DHT22;49000;50.698;13.322;2023-10-09T15:01:10;13.60;99.90
62904;DHT22;49000;50.698;13.322;2023-10-09T15:03:38;13.60;99.90
62904;DHT22;49000;50.698;13.322;2023-10-09T15:06:04;13.60;99.90
62904;DHT22;49000;50.698;13.322;2023-10-09T15:08:34;13.60;99.90
62904;DHT22;49000;50.698;13.322;2023-10-09T15:11:00;13.60;99.90
62904;DHT22;49000;50.698;13.322;2023-10-09T15:13:26;13.60;99.90
62904;DHT22;49000;50.698;13.322;2023-10-09T15:15:54;13.60;99.90
62904;DHT22;49000;50.698;13.322;2023-10-09T15:18:20;13.60;99.90
62904;DHT22;49000;50.698;13.322;2023-10-09T15:20:50;13.60;99.90
62904;DHT22;49000;50.698;13.322;2023-10-09T15:23:17;13.60;99.90
62904;DHT22;49000;50.698;13.322;2023-10-09T15:25:45;13.60;99.90
62904;DHT22;49000;50.698;13.322;2023-10-09T15:28:15;13.60;99.90
62904;DHT22;49000;50.698;13.322;2023-10-09T15:30:41;13.60;99.90
62904;DHT22;49000;50.698;13.322;2023-10-09T15:33:08;13.50;99.90
62904;DHT22;49000;50.698;13.322;2023-10-09T15:35:34;13.60;99.90
62904;DHT22;49000;50.698;13.322;2023-10-09T15:38:03;13.50;99.90
62904;DHT22;49000;50.698;13.322;2023-10-09T15:40:33;13.60;99.90
62904;DHT22;49000;50.698;13.322;2023-10-09T15:43:03;13.60;99.90
62904;DHT22;49000;50.698;13.322;2023-10-09T15:45:30;13.50;99.90
62904;DHT22;49000;50.698;13.322;2023-10-09T15:47:57;13.50;99.90
62904;DHT22;49000;50.698;13.322;2023-10-09T15:50:25;13.50;99.90
62904;DHT22;49000;50.698;13.322;2023-10-09T15:52:53;13.50;99.90
62904;DHT22;49000;50.698;13.322;2023-10-09T15:55:20;13.50;99.90
62904;DHT22;49000;50.698;13.322;2023-10-09T15:57:49;13.50;99.90
62904;DHT22;49000;50.698;13.322;2023-10-09T16:00:15;13.50;99.90
62904;DHT22;49000;50.698;13.322;2023-10-09T16:02:47;13.40;99.90
62904;DHT22;49000;50.698;13.322;2023-10-09T16:05:14;13.40;99.90
62904;DHT22;49000;50.698;13.322;2023-10-09T16:07:41;13.40;99.90
62904;DHT22;49000;50.698;13.322;2023-10-09T16:10:08;13.40;99.90
62904;DHT22;49000;50.698;13.322;2023-10-09T16:12:38;13.40;99.90